Time;durP1;ratioP1;P1;durP2;ratioP2;P2;SDS_P1;SDS_P2;PMS_P1;PMS_P2;Temp;Humidity;BMP_temperature;BMP_pressure;BME280_temperature;BME280_humidity;BME280_pressure;Samples;Min_cycle;Max_cycle;Signal;HPM_P1;HPM_P2
2024/03/15 00:01:12;;;;;;;11.03;6.20;;;13.00;1.00;;;;;;20667071;28;20038;-48
2024/03/15 00:11:13;;;;;;;8.90;6.15;;;13.10;1.00;;;;;;20661944;28;20621;-48
2024/03/15 00:21:17;;;;;;;8.88;5.80;;;13.20;1.00;;;;;;20662122;28;20046;-48
2024/03/15 00:31:17;;;;;;;7.65;6.40;;;13.30;1.00;;;;;;20662836;28;20040;-48
2024/03/15 00:41:19;;;;;;;10.57;6.37;;;13.30;1.00;;;;;;20661314;28;20050;-48
2024/03/15 00:51:20;;;;;;;10.23;7.03;;;13.20;1.00;;;;;;20655978;28;20473;-48
2024/03/15 01:01:20;;;;;;;11.85;7.03;;;13.20;1.00;;;;;;20638740;28;20045;-48
2024/03/15 01:11:21;;;;;;;11.77;7.50;;;13.20;1.00;;;;;;20653985;28;20624;-48
2024/03/15 01:21:22;;;;;;;15.13;7.57;;;13.10;1.00;;;;;;20654676;28;20532;-48
2024/03/15 01:31:22;;;;;;;9.98;6.95;;;13.10;1.00;;;;;;20638288;28;20042;-48
2024/03/15 01:41:23;;;;;;;10.48;7.68;;;13.10;1.00;;;;;;20642316;28;20476;-48
2024/03/15 01:51:24;;;;;;;12.57;7.78;;;13.10;1.00;;;;;;20640294;28;20056;-48
2024/03/15 02:01:24;;;;;;;13.07;7.75;;;13.10;1.00;;;;;;20637088;28;20065;-48
2024/03/15 02:11:25;;;;;;;11.60;7.87;;;13.00;1.00;;;;;;20639213;28;20054;-48
2024/03/15 02:21:26;;;;;;;11.95;8.13;;;13.00;3.30;;;;;;20638552;28;20052;-48
2024/03/15 02:31:26;;;;;;;13.85;8.98;;;12.70;20.50;;;;;;20636356;28;20045;-48
2024/03/15 02:41:27;;;;;;;14.13;8.53;;;12.70;35.90;;;;;;20639695;28;20072;-49
2024/03/15 02:51:28;;;;;;;12.70;8.40;;;12.40;67.00;;;;;;20640682;28;20052;-49
2024/03/15 03:01:28;;;;;;;13.82;8.45;;;12.10;99.90;;;;;;20643291;28;20491;-48
2024/03/15 03:11:29;;;;;;;14.52;9.40;;;12.00;99.90;;;;;;20652206;28;20630;-49
2024/03/15 03:21:31;;;;;;;13.45;9.90;;;11.90;99.90;;;;;;20647522;28;20057;-48
2024/03/15 03:31:31;;;;;;;15.77;9.63;;;11.90;99.90;;;;;;20658994;28;20118;-48
2024/03/15 03:41:32;;;;;;;13.63;8.77;;;11.90;99.90;;;;;;20660954;28;20034;-48
2024/03/15 03:51:34;;;;;;;13.00;8.63;;;11.90;99.90;;;;;;20661947;28;20101;-48
2024/03/15 04:01:35;;;;;;;14.15;9.73;;;11.90;99.90;;;;;;20657916;28;20488;-49
2024/03/15 04:11:38;;;;;;;12.67;8.47;;;11.90;99.90;;;;;;20656735;28;20140;-48
2024/03/15 04:21:39;;;;;;;13.30;8.55;;;12.00;99.90;;;;;;20660561;28;20054;-48
2024/03/15 04:31:40;;;;;;;16.93;8.03;;;12.10;99.90;;;;;;20657936;28;20141;-48
2024/03/15 04:41:40;;;;;;;13.45;7.32;;;12.20;99.90;;;;;;20654455;28;20065;-48
2024/03/15 04:51:41;;;;;;;10.95;7.38;;;12.20;99.90;;;;;;20656052;28;20084;-48
2024/03/15 05:01:42;;;;;;;10.40;6.63;;;12.40;99.90;;;;;;20656434;28;20109;-48
2024/03/15 05:11:43;;;;;;;9.57;6.82;;;12.40;99.90;;;;;;20654470;28;20778;-48
2024/03/15 05:21:44;;;;;;;12.38;7.28;;;12.40;99.90;;;;;;20652530;28;20042;-49
2024/03/15 05:31:46;;;;;;;13.43;7.55;;;12.40;99.90;;;;;;20652599;28;20315;-48
2024/03/15 05:41:47;;;;;;;15.55;8.35;;;12.20;99.90;;;;;;20653093;28;20109;-48
2024/03/15 05:51:47;;;;;;;13.67;9.67;;;12.10;99.90;;;;;;20649218;28;20088;-48
2024/03/15 06:01:48;;;;;;;15.45;10.35;;;12.00;99.90;;;;;;20648692;28;20046;-48
2024/03/15 06:11:49;;;;;;;18.03;11.93;;;12.10;99.90;;;;;;20636115;28;20038;-48
2024/03/15 06:21:49;;;;;;;17.50;11.93;;;12.10;99.90;;;;;;20651486;28;20205;-48
2024/03/15 06:31:50;;;;;;;17.48;11.38;;;12.10;99.90;;;;;;20650307;28;20584;-48
2024/03/15 06:41:53;;;;;;;17.17;9.97;;;12.10;99.90;;;;;;20649911;28;20143;-48
2024/03/15 07:02:13;;;;;;;16.23;10.27;;;12.10;99.90;;;;;;20651565;28;20046;-48
2024/03/15 07:12:14;;;;;;;18.47;10.57;;;12.20;99.90;;;;;;20657286;28;20120;-48
2024/03/15 07:22:16;;;;;;;20.30;10.15;;;12.30;99.90;;;;;;20658556;28;20054;-48
2024/03/15 07:32:16;;;;;;;16.42;8.30;;;12.40;99.90;;;;;;20656055;28;20057;-48
2024/03/15 07:42:19;;;;;;;14.10;7.63;;;12.50;99.90;;;;;;20668469;28;20034;-48
2024/03/15 07:52:20;;;;;;;10.85;5.35;;;12.70;99.90;;;;;;20671480;28;20037;-48
2024/03/15 08:02:24;;;;;;;12.13;4.63;;;12.80;99.90;;;;;;20665966;28;20041;-48
2024/03/15 08:12:24;;;;;;;12.23;4.78;;;12.90;91.30;;;;;;20667707;28;20465;-48
2024/03/15 08:22:25;;;;;;;11.80;4.88;;;13.00;87.00;;;;;;20643073;28;20057;-48
2024/03/15 08:32:29;;;;;;;13.90;4.43;;;13.10;68.80;;;;;;20661370;28;20470;-49
2024/03/15 08:42:30;;;;;;;14.40;4.00;;;13.40;52.20;;;;;;20666470;28;20452;-48
2024/03/15 08:52:31;;;;;;;11.48;3.58;;;13.40;29.70;;;;;;20666060;28;20029;-48
2024/03/15 09:02:32;;;;;;;10.00;4.22;;;13.50;27.20;;;;;;20660379;28;20038;-48
2024/03/15 09:12:33;;;;;;;11.60;4.32;;;13.70;30.00;;;;;;20660474;28;20042;-48
2024/03/15 09:22:34;;;;;;;10.90;4.32;;;13.90;18.50;;;;;;20654973;28;20048;-48
2024/03/15 09:32:34;;;;;;;12.85;3.97;;;13.80;12.70;;;;;;20653993;28;20034;-48
2024/03/15 09:42:35;;;;;;;9.15;3.50;;;14.00;9.70;;;;;;20656704;28;20038;-48
2024/03/15 09:52:36;;;;;;;13.75;4.38;;;14.00;8.70;;;;;;20652607;28;20061;-48
2024/03/15 10:02:37;;;;;;;12.57;3.78;;;14.10;1.90;;;;;;20650009;28;20493;-48
2024/03/15 10:12:45;;;;;;;8.68;3.70;;;13.90;1.00;;;;;;20653133;28;20051;-48
2024/03/15 10:22:48;;;;;;;12.35;2.78;;;14.00;2.30;;;;;;20649734;28;20058;-48
2024/03/15 10:32:53;;;;;;;10.50;2.67;;;14.00;2.70;;;;;;20645760;28;20050;-48
2024/03/15 10:43:00;;;;;;;9.13;2.60;;;13.90;17.40;;;;;;20650045;28;20277;-48
2024/03/15 10:53:05;;;;;;;11.83;2.50;;;14.00;21.50;;;;;;20647335;28;20534;-48
2024/03/15 11:03:13;;;;;;;11.38;2.60;;;14.50;13.40;;;;;;20644754;28;20124;-48
2024/03/15 11:13:13;;;;;;;8.43;2.20;;;14.50;2.80;;;;;;20653387;28;20960;-48
2024/03/15 11:23:19;;;;;;;7.30;1.80;;;14.40;1.00;;;;;;20668026;28;20048;-48
2024/03/15 11:33:20;;;;;;;6.43;1.98;;;14.40;2.50;;;;;;20665684;28;20041;-48
2024/03/15 11:43:21;;;;;;;5.65;2.38;;;14.50;1.00;;;;;;20670592;28;20494;-48
2024/03/15 11:53:22;;;;;;;4.85;1.60;;;14.40;1.00;;;;;;20664683;28;20459;-48
2024/03/15 12:03:26;;;;;;;5.13;1.40;;;15.00;1.00;;;;;;20657413;28;20057;-49
2024/03/15 12:13:31;;;;;;;6.05;1.50;;;15.10;1.00;;;;;;20657472;28;20041;-49
2024/03/15 12:23:31;;;;;;;4.60;2.03;;;14.70;1.00;;;;;;20659847;28;20118;-49
2024/03/15 12:33:32;;;;;;;5.10;1.73;;;14.50;1.00;;;;;;20660621;28;20037;-50
2024/03/15 12:43:33;;;;;;;7.50;2.63;;;14.00;11.20;;;;;;20658001;28;20100;-49
2024/03/15 12:53:33;;;;;;;10.52;2.70;;;13.50;42.40;;;;;;20652903;28;20109;-49
2024/03/15 13:03:34;;;;;;;5.75;1.80;;;13.30;72.30;;;;;;20659816;28;20097;-49
2024/03/15 13:13:35;;;;;;;5.60;1.38;;;13.60;38.80;;;;;;20664272;28;20056;-49
2024/03/15 13:23:36;;;;;;;5.68;2.30;;;14.00;16.10;;;;;;20657801;28;20050;-49
2024/03/15 13:33:39;;;;;;;6.93;2.93;;;14.20;8.40;;;;;;20658955;28;20104;-52
2024/03/15 13:43:40;;;;;;;8.13;2.90;;;14.70;1.00;;;;;;20657587;28;20810;-49
2024/03/15 13:53:45;;;;;;;10.65;3.80;;;14.70;1.00;;;;;;20657275;28;20066;-49
2024/03/15 14:03:46;;;;;;;8.30;2.90;;;14.90;1.00;;;;;;20656953;28;20049;-50
2024/03/15 14:13:47;;;;;;;9.55;2.50;;;15.40;1.00;;;;;;20656678;28;20041;-50
2024/03/15 14:23:49;;;;;;;10.27;2.08;;;15.70;1.00;;;;;;20655972;28;20053;-49
2024/03/15 14:33:50;;;;;;;6.20;1.58;;;15.40;1.00;;;;;;20653384;28;20102;-49
2024/03/15 14:43:51;;;;;;;10.90;2.50;;;16.10;1.00;;;;;;20653572;28;20128;-49
2024/03/15 14:53:51;;;;;;;12.90;2.55;;;16.50;1.00;;;;;;20669338;28;20357;-49
2024/03/15 15:03:52;;;;;;;7.20;1.80;;;15.80;1.00;;;;;;20670794;28;20034;-49
2024/03/15 15:13:52;;;;;;;11.60;2.20;;;15.20;1.00;;;;;;20668211;28;20043;-49
2024/03/15 15:23:53;;;;;;;11.63;1.80;;;15.10;1.00;;;;;;20672524;28;20334;-49
2024/03/15 15:33:56;;;;;;;14.05;2.28;;;15.00;1.00;;;;;;20673842;28;20227;-49
2024/03/15 15:43:57;;;;;;;11.57;1.95;;;14.90;1.00;;;;;;20668012;28;20034;-49
2024/03/15 15:53:58;;;;;;;14.23;2.42;;;15.20;1.00;;;;;;20674364;28;20049;-49
2024/03/15 16:03:59;;;;;;;19.38;2.90;;;15.10;1.00;;;;;;20676418;28;20118;-55
2024/03/15 16:14:00;;;;;;;14.77;2.83;;;15.00;1.00;;;;;;20670191;28;20327;-51
2024/03/15 16:24:00;;;;;;;10.80;2.20;;;15.00;1.00;;;;;;20670092;28;21071;-48
2024/03/15 16:34:01;;;;;;;15.00;3.10;;;15.10;1.00;;;;;;20667523;28;20054;-50
2024/03/15 16:44:02;;;;;;;13.63;2.57;;;14.90;1.00;;;;;;20664412;28;20038;-49
2024/03/15 16:54:03;;;;;;;17.85;3.75;;;14.80;1.00;;;;;;20670095;28;20162;-49
2024/03/15 17:04:08;;;;;;;16.45;2.75;;;14.60;1.00;;;;;;20654649;28;20182;-49
2024/03/15 17:14:10;;;;;;;16.50;3.17;;;14.40;1.00;;;;;;20666467;28;20046;-48
2024/03/15 17:24:10;;;;;;;14.55;2.33;;;14.20;1.00;;;;;;20661066;28;20116;-49
2024/03/15 17:34:11;;;;;;;22.77;3.90;;;14.00;1.00;;;;;;20664638;28;20038;-50
2024/03/15 17:44:12;;;;;;;20.63;3.20;;;13.90;1.00;;;;;;20662285;28;20038;-49
2024/03/15 17:54:13;;;;;;;20.23;3.05;;;13.60;1.00;;;;;;20656461;28;20944;-48
2024/03/15 18:04:13;;;;;;;20.73;3.20;;;13.40;1.00;;;;;;20653355;28;20478;-48
2024/03/15 18:14:14;;;;;;;20.60;3.80;;;13.30;1.00;;;;;;20654667;28;20045;-48
2024/03/15 18:24:15;;;;;;;26.35;3.25;;;13.20;1.00;;;;;;20657853;28;20210;-48
2024/03/15 18:34:15;;;;;;;19.92;3.67;;;13.10;1.00;;;;;;20655159;28;20121;-48
2024/03/15 18:44:16;;;;;;;18.98;3.58;;;13.00;1.00;;;;;;20651536;28;20034;-48
2024/03/15 18:54:17;;;;;;;25.58;4.38;;;13.00;1.00;;;;;;20652703;28;20425;-48
2024/03/15 19:04:17;;;;;;;24.87;3.63;;;12.90;1.00;;;;;;20654871;28;20369;-48
2024/03/15 19:14:18;;;;;;;20.03;3.40;;;12.80;1.00;;;;;;20655712;28;20038;-48
2024/03/15 19:24:18;;;;;;;21.00;3.25;;;12.60;1.00;;;;;;20656736;28;20453;-49
2024/03/15 19:34:19;;;;;;;19.97;3.47;;;12.50;1.00;;;;;;20662927;28;20051;-52
2024/03/15 19:44:21;;;;;;;21.60;3.70;;;12.50;1.00;;;;;;20672716;28;20901;-49
2024/03/15 19:54:21;;;;;;;21.60;3.20;;;12.40;1.00;;;;;;20650832;28;20545;-48
2024/03/15 20:04:22;;;;;;;20.57;3.70;;;12.40;1.00;;;;;;20652495;28;20101;-48
2024/03/15 20:14:23;;;;;;;15.13;3.00;;;12.40;1.00;;;;;;20667154;28;20207;-48
2024/03/15 20:24:23;;;;;;;23.17;3.67;;;12.40;1.00;;;;;;20609954;28;20066;-49
2024/03/15 20:34:25;;;;;;;18.45;3.30;;;12.30;1.00;;;;;;20582399;28;20038;-48
2024/03/15 20:44:25;;;;;;;23.50;3.47;;;12.10;1.00;;;;;;20567199;28;20133;-48
2024/03/15 20:54:26;;;;;;;26.07;4.10;;;11.90;1.00;;;;;;20565817;28;20053;-49
2024/03/15 21:04:27;;;;;;;21.93;4.33;;;11.90;4.00;;;;;;20558187;28;20462;-48
2024/03/15 21:14:29;;;;;;;21.73;4.33;;;11.90;6.00;;;;;;20555714;28;20492;-48
2024/03/15 21:24:30;;;;;;;19.50;4.82;;;11.90;7.70;;;;;;20602686;28;20477;-49
2024/03/15 21:34:31;;;;;;;27.90;3.83;;;11.70;10.70;;;;;;20629100;28;21298;-48
2024/03/15 21:44:36;;;;;;;20.65;4.18;;;11.70;12.10;;;;;;20639570;28;20061;-48
2024/03/15 21:54:36;;;;;;;23.48;4.90;;;11.60;14.80;;;;;;20623435;28;20046;-48
2024/03/15 22:04:38;;;;;;;20.83;3.28;;;11.60;18.20;;;;;;20653601;28;20042;-48
2024/03/15 22:14:38;;;;;;;25.38;3.72;;;11.60;18.10;;;;;;20653898;28;20153;-48
2024/03/15 22:24:39;;;;;;;19.17;4.47;;;11.70;18.80;;;;;;20656402;28;20058;-48
2024/03/15 22:34:39;;;;;;;25.57;3.97;;;11.80;15.70;;;;;;20657685;28;20049;-48
2024/03/15 22:44:42;;;;;;;27.10;4.05;;;11.90;16.00;;;;;;20648979;28;20078;-48
2024/03/15 22:54:43;;;;;;;19.33;4.03;;;11.90;14.10;;;;;;20655099;28;20038;-48
2024/03/15 23:04:44;;;;;;;27.30;7.07;;;11.90;13.10;;;;;;20645191;28;20116;-48
2024/03/15 23:14:45;;;;;;;19.20;5.03;;;11.90;12.70;;;;;;20658858;28;20046;-48
2024/03/15 23:24:47;;;;;;;24.23;5.63;;;11.90;14.60;;;;;;20656955;28;20049;-48
2024/03/15 23:34:48;;;;;;;22.02;4.60;;;11.80;23.40;;;;;;20661643;28;20065;-48
2024/03/15 23:44:48;;;;;;;24.63;5.20;;;11.70;27.30;;;;;;20663395;28;20053;-48
2024/03/15 23:54:49;;;;;;;22.93;5.13;;;11.70;29.20;;;;;;20656635;28;20045;-48
